sensor_id;sensor_type;location;lat;lon;timestamp;temperature;humidity
2623;DHT22;1321;48.690;9.022;2023-06-01T00:02:20;18.00;91.60
2623;DHT22;1321;48.690;9.022;2023-06-01T00:04:48;18.00;78.10
2623;DHT22;1321;48.690;9.022;2023-06-01T00:07:17;18.00;79.40
2623;DHT22;1321;48.690;9.022;2023-06-01T00:09:46;18.00;80.60
2623;DHT22;1321;48.690;9.022;2023-06-01T00:12:14;17.90;80.40
2623;DHT22;1321;48.690;9.022;2023-06-01T00:14:42;17.90;82.90
2623;DHT22;1321;48.690;9.022;2023-06-01T00:17:10;17.80;80.20
2623;DHT22;1321;48.690;9.022;2023-06-01T00:19:38;17.80;79.30
2623;DHT22;1321;48.690;9.022;2023-06-01T00:22:06;17.60;77.80
2623;DHT22;1321;48.690;9.022;2023-06-01T00:24:35;17.60;76.90
2623;DHT22;1321;48.690;9.022;2023-06-01T00:27:05;17.60;75.90
2623;DHT22;1321;48.690;9.022;2023-06-01T00:29:34;17.50;75.80
2623;DHT22;1321;48.690;9.022;2023-06-01T00:32:02;17.50;76.70
2623;DHT22;1321;48.690;9.022;2023-06-01T00:34:30;17.50;78.60
2623;DHT22;1321;48.690;9.022;2023-06-01T00:36:58;17.50;79.00
2623;DHT22;1321;48.690;9.022;2023-06-01T00:39:27;17.50;80.60
2623;DHT22;1321;48.690;9.022;2023-06-01T00:41:55;17.60;81.70
2623;DHT22;1321;48.690;9.022;2023-06-01T00:44:26;17.60;82.70
2623;DHT22;1321;48.690;9.022;2023-06-01T00:46:54;17.60;84.60
2623;DHT22;1321;48.690;9.022;2023-06-01T00:49:22;17.40;82.80
2623;DHT22;1321;48.690;9.022;2023-06-01T00:51:50;17.40;80.10
2623;DHT22;1321;48.690;9.022;2023-06-01T00:54:19;17.30;81.30
2623;DHT22;1321;48.690;9.022;2023-06-01T00:56:48;17.20;80.50
2623;DHT22;1321;48.690;9.022;2023-06-01T00:59:16;17.20;82.00
2623;DHT22;1321;48.690;9.022;2023-06-01T01:01:45;17.20;83.10
2623;DHT22;1321;48.690;9.022;2023-06-01T01:04:13;17.20;83.80
2623;DHT22;1321;48.690;9.022;2023-06-01T01:06:58;17.30;84.80
2623;DHT22;1321;48.690;9.022;2023-06-01T01:09:35;17.30;84.30
2623;DHT22;1321;48.690;9.022;2023-06-01T01:12:13;17.40;87.50
2623;DHT22;1321;48.690;9.022;2023-06-01T01:14:48;17.20;84.70
2623;DHT22;1321;48.690;9.022;2023-06-01T01:17:26;17.10;85.30
2623;DHT22;1321;48.690;9.022;2023-06-01T01:20:02;17.10;87.70
2623;DHT22;1321;48.690;9.022;2023-06-01T01:23:09;17.00;88.90
2623;DHT22;1321;48.690;9.022;2023-06-01T01:26:08;17.00;89.10
2623;DHT22;1321;48.690;9.022;2023-06-01T01:28:42;16.90;89.80
2623;DHT22;1321;48.690;9.022;2023-06-01T01:31:12;16.90;89.80
2623;DHT22;1321;48.690;9.022;2023-06-01T01:33:41;16.80;90.00
2623;DHT22;1321;48.690;9.022;2023-06-01T01:36:10;16.80;89.30
2623;DHT22;1321;48.690;9.022;2023-06-01T01:38:39;16.80;90.40
2623;DHT22;1321;48.690;9.022;2023-06-01T01:41:07;16.80;91.00
2623;DHT22;1321;48.690;9.022;2023-06-01T01:43:36;16.80;91.90
2623;DHT22;1321;48.690;9.022;2023-06-01T01:46:13;16.80;91.60
2623;DHT22;1321;48.690;9.022;2023-06-01T01:48:48;16.80;91.80
2623;DHT22;1321;48.690;9.022;2023-06-01T01:51:22;16.80;92.70
2623;DHT22;1321;48.690;9.022;2023-06-01T01:53:53;16.70;92.00
2623;DHT22;1321;48.690;9.022;2023-06-01T01:56:23;16.70;92.10
2623;DHT22;1321;48.690;9.022;2023-06-01T01:58:53;16.70;92.50
2623;DHT22;1321;48.690;9.022;2023-06-01T02:01:23;16.70;92.80
2623;DHT22;1321;48.690;9.022;2023-06-01T02:03:59;16.70;93.00
2623;DHT22;1321;48.690;9.022;2023-06-01T02:06:28;16.60;93.10
2623;DHT22;1321;48.690;9.022;2023-06-01T02:08:57;16.70;93.50
2623;DHT22;1321;48.690;9.022;2023-06-01T02:11:25;16.70;92.60
2623;DHT22;1321;48.690;9.022;2023-06-01T02:13:54;16.70;92.40
2623;DHT22;1321;48.690;9.022;2023-06-01T02:16:23;16.70;93.80
2623;DHT22;1321;48.690;9.022;2023-06-01T02:18:51;16.60;93.60
2623;DHT22;1321;48.690;9.022;2023-06-01T02:21:21;16.50;93.70
2623;DHT22;1321;48.690;9.022;2023-06-01T02:23:49;16.50;94.10
2623;DHT22;1321;48.690;9.022;2023-06-01T02:26:17;16.40;93.90
2623;DHT22;1321;48.690;9.022;2023-06-01T02:28:45;16.40;94.30
2623;DHT22;1321;48.690;9.022;2023-06-01T02:31:14;16.40;95.30
2623;DHT22;1321;48.690;9.022;2023-06-01T02:33:43;16.40;95.50
2623;DHT22;1321;48.690;9.022;2023-06-01T02:36:11;16.40;99.90
2623;DHT22;1321;48.690;9.022;2023-06-01T02:38:39;16.40;96.40
2623;DHT22;1321;48.690;9.022;2023-06-01T02:41:08;16.40;95.90
2623;DHT22;1321;48.690;9.022;2023-06-01T02:43:36;16.40;96.10
2623;DHT22;1321;48.690;9.022;2023-06-01T02:46:04;16.30;96.50
2623;DHT22;1321;48.690;9.022;2023-06-01T02:48:32;16.30;96.80
2623;DHT22;1321;48.690;9.022;2023-06-01T02:51:02;16.30;98.80
2623;DHT22;1321;48.690;9.022;2023-06-01T02:53:30;16.20;98.70
2623;DHT22;1321;48.690;9.022;2023-06-01T02:55:58;16.20;98.90
2623;DHT22;1321;48.690;9.022;2023-06-01T02:58:26;16.20;99.60
2623;DHT22;1321;48.690;9.022;2023-06-01T03:00:56;16.20;98.90
2623;DHT22;1321;48.690;9.022;2023-06-01T03:03:25;16.20;99.00
2623;DHT22;1321;48.690;9.022;2023-06-01T03:05:54;16.20;99.90
2623;DHT22;1321;48.690;9.022;2023-06-01T03:08:24;16.10;99.90
2623;DHT22;1321;48.690;9.022;2023-06-01T03:10:52;16.10;99.90
2623;DHT22;1321;48.690;9.022;2023-06-01T03:13:20;16.00;99.90
2623;DHT22;1321;48.690;9.022;2023-06-01T03:15:49;16.00;99.90
2623;DHT22;1321;48.690;9.022;2023-06-01T03:18:18;15.90;99.90
2623;DHT22;1321;48.690;9.022;2023-06-01T03:20:46;15.90;99.90
2623;DHT22;1321;48.690;9.022;2023-06-01T03:23:15;15.90;99.90
2623;DHT22;1321;48.690;9.022;2023-06-01T03:25:45;15.90;99.90
2623;DHT22;1321;48.690;9.022;2023-06-01T03:28:13;15.80;99.90
2623;DHT22;1321;48.690;9.022;2023-06-01T03:30:41;15.80;99.90
2623;DHT22;1321;48.690;9.022;2023-06-01T03:33:09;15.80;99.90
2623;DHT22;1321;48.690;9.022;2023-06-01T03:35:38;15.80;99.90
2623;DHT22;1321;48.690;9.022;2023-06-01T03:38:07;15.80;99.90
2623;DHT22;1321;48.690;9.022;2023-06-01T03:40:35;15.90;99.90
2623;DHT22;1321;48.690;9.022;2023-06-01T03:43:04;15.80;99.90
2623;DHT22;1321;48.690;9.022;2023-06-01T03:45:33;15.80;99.90
2623;DHT22;1321;48.690;9.022;2023-06-01T03:48:01;15.80;99.90
2623;DHT22;1321;48.690;9.022;2023-06-01T03:50:29;15.80;99.90
2623;DHT22;1321;48.690;9.022;2023-06-01T03:52:57;15.80;99.90
2623;DHT22;1321;48.690;9.022;2023-06-01T03:55:25;15.80;99.90
2623;DHT22;1321;48.690;9.022;2023-06-01T03:57:54;15.80;99.90
2623;DHT22;1321;48.690;9.022;2023-06-01T04:00:23;15.80;99.90
2623;DHT22;1321;48.690;9.022;2023-06-01T04:02:54;15.70;99.90
2623;DHT22;1321;48.690;9.022;2023-06-01T04:05:25;15.70;99.90
2623;DHT22;1321;48.690;9.022;2023-06-01T04:07:54;15.80;99.90
2623;DHT22;1321;48.690;9.022;2023-06-01T04:10:23;15.80;99.90
2623;DHT22;1321;48.690;9.022;2023-06-01T04:12:51;15.80;99.90
2623;DHT22;1321;48.690;9.022;2023-06-01T04:15:21;15.80;99.90
2623;DHT22;1321;48.690;9.022;2023-06-01T04:17:51;15.80;99.90
2623;DHT22;1321;48.690;9.022;2023-06-01T04:20:19;15.80;99.90
2623;DHT22;1321;48.690;9.022;2023-06-01T04:22:47;15.80;99.90
2623;DHT22;1321;48.690;9.022;2023-06-01T04:25:16;15.80;99.90
2623;DHT22;1321;48.690;9.022;2023-06-01T04:27:48;15.80;99.90
2623;DHT22;1321;48.690;9.022;2023-06-01T04:30:18;15.80;99.90
2623;DHT22;1321;48.690;9.022;2023-06-01T04:32:47;15.90;99.90
2623;DHT22;1321;48.690;9.022;2023-06-01T04:35:17;15.90;99.90
2623;DHT22;1321;48.690;9.022;2023-06-01T04:37:45;16.00;99.90
2623;DHT22;1321;48.690;9.022;2023-06-01T04:40:13;16.00;99.90
2623;DHT22;1321;48.690;9.022;2023-06-01T04:42:43;16.00;99.90
2623;DHT22;1321;48.690;9.022;2023-06-01T04:45:16;16.10;99.90
2623;DHT22;1321;48.690;9.022;2023-06-01T04:47:46;16.00;99.90
2623;DHT22;1321;48.690;9.022;2023-06-01T04:50:16;16.10;99.90
2623;DHT22;1321;48.690;9.022;2023-06-01T04:52:45;16.20;99.90
2623;DHT22;1321;48.690;9.022;2023-06-01T04:55:15;16.20;99.90
2623;DHT22;1321;48.690;9.022;2023-06-01T04:57:43;16.20;99.90
2623;DHT22;1321;48.690;9.022;2023-06-01T05:00:13;16.30;99.90
2623;DHT22;1321;48.690;9.022;2023-06-01T05:02:45;16.30;99.90
2623;DHT22;1321;48.690;9.022;2023-06-01T05:05:16;16.30;99.90
2623;DHT22;1321;48.690;9.022;2023-06-01T05:07:44;16.30;99.90
2623;DHT22;1321;48.690;9.022;2023-06-01T05:10:12;16.40;99.90
2623;DHT22;1321;48.690;9.022;2023-06-01T05:12:40;16.40;99.90
2623;DHT22;1321;48.690;9.022;2023-06-01T05:15:09;16.40;99.90
2623;DHT22;1321;48.690;9.022;2023-06-01T05:17:38;16.40;99.90
2623;DHT22;1321;48.690;9.022;2023-06-01T05:20:07;16.40;99.90
2623;DHT22;1321;48.690;9.022;2023-06-01T05:22:39;16.50;99.90
2623;DHT22;1321;48.690;9.022;2023-06-01T05:25:08;16.50;99.90
2623;DHT22;1321;48.690;9.022;2023-06-01T05:27:37;16.50;99.90
2623;DHT22;1321;48.690;9.022;2023-06-01T05:30:06;16.50;99.90
2623;DHT22;1321;48.690;9.022;2023-06-01T05:32:34;16.50;99.90
2623;DHT22;1321;48.690;9.022;2023-06-01T05:35:03;16.50;99.90
2623;DHT22;1321;48.690;9.022;2023-06-01T05:37:32;16.50;99.90
2623;DHT22;1321;48.690;9.022;2023-06-01T05:40:02;16.60;99.90
2623;DHT22;1321;48.690;9.022;2023-06-01T05:42:34;16.60;99.90
2623;DHT22;1321;48.690;9.022;2023-06-01T05:45:03;16.70;99.90
2623;DHT22;1321;48.690;9.022;2023-06-01T05:47:32;16.70;99.90
2623;DHT22;1321;48.690;9.022;2023-06-01T05:50:00;16.70;99.90
2623;DHT22;1321;48.690;9.022;2023-06-01T05:52:28;16.80;99.90
2623;DHT22;1321;48.690;9.022;2023-06-01T05:54:56;16.80;99.90
2623;DHT22;1321;48.690;9.022;2023-06-01T05:57:25;16.90;99.90
2623;DHT22;1321;48.690;9.022;2023-06-01T05:59:54;17.00;99.90
2623;DHT22;1321;48.690;9.022;2023-06-01T06:02:22;17.10;99.90
2623;DHT22;1321;48.690;9.022;2023-06-01T06:04:50;17.10;99.90
2623;DHT22;1321;48.690;9.022;2023-06-01T06:07:18;17.10;99.90
2623;DHT22;1321;48.690;9.022;2023-06-01T06:09:46;17.20;99.90
2623;DHT22;1321;48.690;9.022;2023-06-01T06:12:14;17.30;99.90
2623;DHT22;1321;48.690;9.022;2023-06-01T06:14:43;17.30;99.90
2623;DHT22;1321;48.690;9.022;2023-06-01T06:17:12;17.30;99.90
2623;DHT22;1321;48.690;9.022;2023-06-01T06:19:40;17.40;99.90
2623;DHT22;1321;48.690;9.022;2023-06-01T06:22:10;17.50;99.90
2623;DHT22;1321;48.690;9.022;2023-06-01T06:24:38;17.60;99.90
2623;DHT22;1321;48.690;9.022;2023-06-01T06:27:06;17.70;99.90
2623;DHT22;1321;48.690;9.022;2023-06-01T06:29:35;17.70;99.90
2623;DHT22;1321;48.690;9.022;2023-06-01T06:32:05;17.90;99.90
2623;DHT22;1321;48.690;9.022;2023-06-01T06:34:33;17.90;99.90
2623;DHT22;1321;48.690;9.022;2023-06-01T06:37:03;18.00;99.90
2623;DHT22;1321;48.690;9.022;2023-06-01T06:39:32;17.90;99.90
2623;DHT22;1321;48.690;9.022;2023-06-01T06:42:01;18.00;99.90
2623;DHT22;1321;48.690;9.022;2023-06-01T06:44:29;18.00;99.90
2623;DHT22;1321;48.690;9.022;2023-06-01T06:46:59;18.20;99.90
2623;DHT22;1321;48.690;9.022;2023-06-01T06:49:30;18.30;99.90
2623;DHT22;1321;48.690;9.022;2023-06-01T06:51:58;18.30;99.90
2623;DHT22;1321;48.690;9.022;2023-06-01T06:54:26;18.30;99.90
2623;DHT22;1321;48.690;9.022;2023-06-01T06:56:54;18.40;99.90
2623;DHT22;1321;48.690;9.022;2023-06-01T06:59:22;18.40;99.90
2623;DHT22;1321;48.690;9.022;2023-06-01T07:01:51;18.40;99.90
2623;DHT22;1321;48.690;9.022;2023-06-01T07:04:19;18.40;99.90
2623;DHT22;1321;48.690;9.022;2023-06-01T07:06:50;18.60;99.90
2623;DHT22;1321;48.690;9.022;2023-06-01T07:09:18;18.70;99.90
2623;DHT22;1321;48.690;9.022;2023-06-01T07:11:47;18.70;99.90
2623;DHT22;1321;48.690;9.022;2023-06-01T07:14:15;18.80;99.90
2623;DHT22;1321;48.690;9.022;2023-06-01T07:16:43;18.80;99.90
2623;DHT22;1321;48.690;9.022;2023-06-01T07:19:12;18.90;99.90
2623;DHT22;1321;48.690;9.022;2023-06-01T07:21:40;19.00;99.90
2623;DHT22;1321;48.690;9.022;2023-06-01T07:24:10;19.10;99.90
2623;DHT22;1321;48.690;9.022;2023-06-01T07:26:38;19.10;99.90
2623;DHT22;1321;48.690;9.022;2023-06-01T07:29:06;19.10;99.90
2623;DHT22;1321;48.690;9.022;2023-06-01T07:31:38;19.20;99.90
2623;DHT22;1321;48.690;9.022;2023-06-01T07:34:06;19.30;99.90
2623;DHT22;1321;48.690;9.022;2023-06-01T07:36:34;19.30;99.90
2623;DHT22;1321;48.690;9.022;2023-06-01T07:39:04;19.40;99.90
2623;DHT22;1321;48.690;9.022;2023-06-01T07:41:37;19.50;99.90
2623;DHT22;1321;48.690;9.022;2023-06-01T07:44:06;19.50;99.90
2623;DHT22;1321;48.690;9.022;2023-06-01T07:46:35;19.70;99.90
2623;DHT22;1321;48.690;9.022;2023-06-01T07:49:03;19.70;99.90
2623;DHT22;1321;48.690;9.022;2023-06-01T07:51:31;19.80;99.90
2623;DHT22;1321;48.690;9.022;2023-06-01T07:53:59;19.80;99.90
2623;DHT22;1321;48.690;9.022;2023-06-01T07:56:28;19.90;99.90
2623;DHT22;1321;48.690;9.022;2023-06-01T07:58:57;20.00;99.90
2623;DHT22;1321;48.690;9.022;2023-06-01T08:01:26;20.00;99.90
2623;DHT22;1321;48.690;9.022;2023-06-01T08:03:54;20.00;99.90
2623;DHT22;1321;48.690;9.022;2023-06-01T08:06:23;20.10;99.90
2623;DHT22;1321;48.690;9.022;2023-06-01T08:08:52;20.10;99.90
2623;DHT22;1321;48.690;9.022;2023-06-01T08:11:20;20.30;99.90
2623;DHT22;1321;48.690;9.022;2023-06-01T08:13:50;20.30;99.90
2623;DHT22;1321;48.690;9.022;2023-06-01T08:16:20;20.30;99.90
2623;DHT22;1321;48.690;9.022;2023-06-01T08:18:48;20.40;99.90
2623;DHT22;1321;48.690;9.022;2023-06-01T08:21:17;20.50;99.90
2623;DHT22;1321;48.690;9.022;2023-06-01T08:23:46;20.60;99.90
2623;DHT22;1321;48.690;9.022;2023-06-01T08:26:14;20.70;99.90
2623;DHT22;1321;48.690;9.022;2023-06-01T08:28:43;20.70;99.90
2623;DHT22;1321;48.690;9.022;2023-06-01T08:31:20;20.80;99.90
2623;DHT22;1321;48.690;9.022;2023-06-01T08:33:49;20.80;99.90
2623;DHT22;1321;48.690;9.022;2023-06-01T08:36:20;20.80;99.90
2623;DHT22;1321;48.690;9.022;2023-06-01T08:38:53;20.80;99.90
2623;DHT22;1321;48.690;9.022;2023-06-01T08:41:26;20.90;99.90
2623;DHT22;1321;48.690;9.022;2023-06-01T08:44:02;20.90;99.90
2623;DHT22;1321;48.690;9.022;2023-06-01T08:46:33;21.00;99.90
2623;DHT22;1321;48.690;9.022;2023-06-01T08:49:01;21.00;99.90
2623;DHT22;1321;48.690;9.022;2023-06-01T08:51:33;21.10;99.90
2623;DHT22;1321;48.690;9.022;2023-06-01T08:54:04;21.20;99.90
2623;DHT22;1321;48.690;9.022;2023-06-01T08:56:34;21.20;99.90
2623;DHT22;1321;48.690;9.022;2023-06-01T08:59:02;21.30;99.90
2623;DHT22;1321;48.690;9.022;2023-06-01T09:01:32;21.30;99.90
2623;DHT22;1321;48.690;9.022;2023-06-01T09:04:00;21.40;99.90
2623;DHT22;1321;48.690;9.022;2023-06-01T09:06:28;21.40;99.90
2623;DHT22;1321;48.690;9.022;2023-06-01T09:08:57;21.50;99.90
2623;DHT22;1321;48.690;9.022;2023-06-01T09:11:26;21.50;99.90
2623;DHT22;1321;48.690;9.022;2023-06-01T09:13:56;21.50;99.90
2623;DHT22;1321;48.690;9.022;2023-06-01T09:16:36;21.60;99.90
2623;DHT22;1321;48.690;9.022;2023-06-01T09:19:04;21.70;99.90
2623;DHT22;1321;48.690;9.022;2023-06-01T09:21:35;21.70;99.90
2623;DHT22;1321;48.690;9.022;2023-06-01T09:24:19;21.80;99.90
2623;DHT22;1321;48.690;9.022;2023-06-01T09:26:49;21.90;99.90
2623;DHT22;1321;48.690;9.022;2023-06-01T09:29:17;21.80;99.90
2623;DHT22;1321;48.690;9.022;2023-06-01T09:31:47;21.80;99.90
2623;DHT22;1321;48.690;9.022;2023-06-01T09:34:17;21.90;99.90
2623;DHT22;1321;48.690;9.022;2023-06-01T09:36:46;22.00;99.90
2623;DHT22;1321;48.690;9.022;2023-06-01T09:39:16;22.00;99.90
2623;DHT22;1321;48.690;9.022;2023-06-01T09:41:49;22.00;99.90
2623;DHT22;1321;48.690;9.022;2023-06-01T09:44:25;22.00;99.90
2623;DHT22;1321;48.690;9.022;2023-06-01T09:46:56;22.10;99.90
2623;DHT22;1321;48.690;9.022;2023-06-01T09:49:26;22.20;99.90
2623;DHT22;1321;48.690;9.022;2023-06-01T09:52:09;22.20;99.90
2623;DHT22;1321;48.690;9.022;2023-06-01T09:54:41;22.30;99.90
2623;DHT22;1321;48.690;9.022;2023-06-01T09:57:10;22.40;99.90
2623;DHT22;1321;48.690;9.022;2023-06-01T09:59:40;22.40;99.90
2623;DHT22;1321;48.690;9.022;2023-06-01T10:02:14;22.50;99.90
2623;DHT22;1321;48.690;9.022;2023-06-01T10:04:47;22.70;99.90
2623;DHT22;1321;48.690;9.022;2023-06-01T10:07:17;22.70;99.90
2623;DHT22;1321;48.690;9.022;2023-06-01T10:09:51;22.70;99.90
2623;DHT22;1321;48.690;9.022;2023-06-01T10:12:19;22.70;99.90
2623;DHT22;1321;48.690;9.022;2023-06-01T10:14:48;22.70;99.90
2623;DHT22;1321;48.690;9.022;2023-06-01T10:17:18;22.70;99.90
2623;DHT22;1321;48.690;9.022;2023-06-01T10:19:47;22.70;99.90
2623;DHT22;1321;48.690;9.022;2023-06-01T10:22:16;22.80;99.90
2623;DHT22;1321;48.690;9.022;2023-06-01T10:24:45;22.70;99.90
2623;DHT22;1321;48.690;9.022;2023-06-01T10:27:18;22.80;99.90
2623;DHT22;1321;48.690;9.022;2023-06-01T10:29:48;22.80;99.90
2623;DHT22;1321;48.690;9.022;2023-06-01T10:32:46;22.80;99.90
2623;DHT22;1321;48.690;9.022;2023-06-01T10:38:29;23.00;99.90
2623;DHT22;1321;48.690;9.022;2023-06-01T10:41:28;23.10;99.90
2623;DHT22;1321;48.690;9.022;2023-06-01T10:43:57;23.00;99.90
2623;DHT22;1321;48.690;9.022;2023-06-01T10:46:47;23.10;99.90
2623;DHT22;1321;48.690;9.022;2023-06-01T10:49:16;23.10;99.90
2623;DHT22;1321;48.690;9.022;2023-06-01T10:51:44;23.10;99.90
2623;DHT22;1321;48.690;9.022;2023-06-01T10:54:25;23.00;99.90
2623;DHT22;1321;48.690;9.022;2023-06-01T10:57:22;23.00;99.90
2623;DHT22;1321;48.690;9.022;2023-06-01T11:00:13;23.10;99.90
2623;DHT22;1321;48.690;9.022;2023-06-01T11:02:44;23.20;99.90
2623;DHT22;1321;48.690;9.022;2023-06-01T11:05:43;23.20;99.90
2623;DHT22;1321;48.690;9.022;2023-06-01T11:08:51;23.20;99.90
2623;DHT22;1321;48.690;9.022;2023-06-01T11:11:23;23.30;99.90
2623;DHT22;1321;48.690;9.022;2023-06-01T11:14:11;23.40;99.90
2623;DHT22;1321;48.690;9.022;2023-06-01T11:16:40;23.40;99.90
2623;DHT22;1321;48.690;9.022;2023-06-01T11:19:09;23.40;99.90
2623;DHT22;1321;48.690;9.022;2023-06-01T11:21:40;23.60;99.90
2623;DHT22;1321;48.690;9.022;2023-06-01T11:24:11;23.60;99.90
2623;DHT22;1321;48.690;9.022;2023-06-01T11:26:41;23.60;99.90
2623;DHT22;1321;48.690;9.022;2023-06-01T11:29:12;23.70;99.90
2623;DHT22;1321;48.690;9.022;2023-06-01T11:31:43;23.70;99.90
2623;DHT22;1321;48.690;9.022;2023-06-01T11:34:13;23.70;99.90
2623;DHT22;1321;48.690;9.022;2023-06-01T11:36:45;23.80;99.90
2623;DHT22;1321;48.690;9.022;2023-06-01T11:39:23;23.80;99.90
2623;DHT22;1321;48.690;9.022;2023-06-01T11:41:57;23.90;99.90
2623;DHT22;1321;48.690;9.022;2023-06-01T11:44:31;23.80;99.90
2623;DHT22;1321;48.690;9.022;2023-06-01T11:46:59;23.80;99.90
2623;DHT22;1321;48.690;9.022;2023-06-01T11:49:28;23.90;99.90
2623;DHT22;1321;48.690;9.022;2023-06-01T11:51:57;23.80;99.90
2623;DHT22;1321;48.690;9.022;2023-06-01T11:54:26;23.80;99.90
2623;DHT22;1321;48.690;9.022;2023-06-01T11:56:56;23.80;99.90
2623;DHT22;1321;48.690;9.022;2023-06-01T11:59:25;23.80;99.90
2623;DHT22;1321;48.690;9.022;2023-06-01T12:01:55;23.80;99.90
2623;DHT22;1321;48.690;9.022;2023-06-01T12:04:24;24.00;99.90
2623;DHT22;1321;48.690;9.022;2023-06-01T12:07:05;23.90;99.90
2623;DHT22;1321;48.690;9.022;2023-06-01T12:09:34;24.00;99.90
2623;DHT22;1321;48.690;9.022;2023-06-01T12:12:04;24.00;99.90
2623;DHT22;1321;48.690;9.022;2023-06-01T12:14:34;24.10;99.90
2623;DHT22;1321;48.690;9.022;2023-06-01T12:17:03;24.10;99.90
2623;DHT22;1321;48.690;9.022;2023-06-01T12:19:32;24.00;99.90
2623;DHT22;1321;48.690;9.022;2023-06-01T12:22:04;24.00;99.90
2623;DHT22;1321;48.690;9.022;2023-06-01T12:24:33;23.90;99.90
2623;DHT22;1321;48.690;9.022;2023-06-01T12:27:03;23.90;99.90
2623;DHT22;1321;48.690;9.022;2023-06-01T12:29:40;24.00;99.90
2623;DHT22;1321;48.690;9.022;2023-06-01T12:32:10;24.00;99.90
2623;DHT22;1321;48.690;9.022;2023-06-01T12:34:40;24.00;99.90
2623;DHT22;1321;48.690;9.022;2023-06-01T12:37:17;24.10;99.90
2623;DHT22;1321;48.690;9.022;2023-06-01T12:39:51;24.10;99.90
2623;DHT22;1321;48.690;9.022;2023-06-01T12:42:34;24.10;99.90
2623;DHT22;1321;48.690;9.022;2023-06-01T12:45:04;24.10;99.90
2623;DHT22;1321;48.690;9.022;2023-06-01T12:47:37;24.10;99.90
2623;DHT22;1321;48.690;9.022;2023-06-01T12:50:06;24.10;99.90
2623;DHT22;1321;48.690;9.022;2023-06-01T12:52:37;24.10;99.90
2623;DHT22;1321;48.690;9.022;2023-06-01T12:55:07;24.10;99.90
2623;DHT22;1321;48.690;9.022;2023-06-01T12:57:36;24.20;99.90
2623;DHT22;1321;48.690;9.022;2023-06-01T13:00:06;24.20;99.90
2623;DHT22;1321;48.690;9.022;2023-06-01T13:02:34;24.20;99.90
2623;DHT22;1321;48.690;9.022;2023-06-01T13:05:03;24.30;99.90
2623;DHT22;1321;48.690;9.022;2023-06-01T13:07:33;24.40;99.90
2623;DHT22;1321;48.690;9.022;2023-06-01T13:10:03;24.30;99.90
2623;DHT22;1321;48.690;9.022;2023-06-01T13:12:31;24.30;99.90
2623;DHT22;1321;48.690;9.022;2023-06-01T13:14:59;24.20;99.90
2623;DHT22;1321;48.690;9.022;2023-06-01T13:17:29;24.20;99.90
2623;DHT22;1321;48.690;9.022;2023-06-01T13:19:58;24.20;99.90
2623;DHT22;1321;48.690;9.022;2023-06-01T13:22:26;24.30;99.90
2623;DHT22;1321;48.690;9.022;2023-06-01T13:24:54;24.30;99.90
2623;DHT22;1321;48.690;9.022;2023-06-01T13:27:32;24.40;99.90
2623;DHT22;1321;48.690;9.022;2023-06-01T13:30:01;24.40;99.90
2623;DHT22;1321;48.690;9.022;2023-06-01T13:32:30;24.50;99.90
2623;DHT22;1321;48.690;9.022;2023-06-01T13:34:59;24.50;99.90
2623;DHT22;1321;48.690;9.022;2023-06-01T13:37:28;24.50;99.90
2623;DHT22;1321;48.690;9.022;2023-06-01T13:39:56;24.60;99.90
2623;DHT22;1321;48.690;9.022;2023-06-01T13:42:24;24.70;99.90
2623;DHT22;1321;48.690;9.022;2023-06-01T13:44:54;24.70;99.90
2623;DHT22;1321;48.690;9.022;2023-06-01T13:47:22;24.70;99.90
2623;DHT22;1321;48.690;9.022;2023-06-01T13:49:50;24.80;99.90
2623;DHT22;1321;48.690;9.022;2023-06-01T13:52:19;24.70;99.90
2623;DHT22;1321;48.690;9.022;2023-06-01T13:54:47;24.80;99.90
2623;DHT22;1321;48.690;9.022;2023-06-01T13:57:15;24.70;99.90
2623;DHT22;1321;48.690;9.022;2023-06-01T13:59:43;24.70;99.90
2623;DHT22;1321;48.690;9.022;2023-06-01T14:02:12;24.60;99.90
2623;DHT22;1321;48.690;9.022;2023-06-01T14:04:41;24.70;99.90
2623;DHT22;1321;48.690;9.022;2023-06-01T14:07:09;24.70;99.90
2623;DHT22;1321;48.690;9.022;2023-06-01T14:09:37;24.70;99.90
2623;DHT22;1321;48.690;9.022;2023-06-01T14:12:06;24.80;99.90
2623;DHT22;1321;48.690;9.022;2023-06-01T14:14:34;24.80;99.90
2623;DHT22;1321;48.690;9.022;2023-06-01T14:17:02;24.80;99.90
2623;DHT22;1321;48.690;9.022;2023-06-01T14:19:32;24.80;99.90
2623;DHT22;1321;48.690;9.022;2023-06-01T14:22:00;24.80;99.90
2623;DHT22;1321;48.690;9.022;2023-06-01T14:24:45;24.80;99.90
2623;DHT22;1321;48.690;9.022;2023-06-01T14:27:35;24.80;99.90
2623;DHT22;1321;48.690;9.022;2023-06-01T14:30:04;24.80;99.90
2623;DHT22;1321;48.690;9.022;2023-06-01T14:32:33;24.70;99.90
2623;DHT22;1321;48.690;9.022;2023-06-01T14:35:04;24.80;99.90
2623;DHT22;1321;48.690;9.022;2023-06-01T14:37:36;24.70;99.90
2623;DHT22;1321;48.690;9.022;2023-06-01T14:40:16;24.80;99.90
2623;DHT22;1321;48.690;9.022;2023-06-01T14:42:44;25.00;99.90
2623;DHT22;1321;48.690;9.022;2023-06-01T14:45:12;24.90;99.90
2623;DHT22;1321;48.690;9.022;2023-06-01T14:47:41;24.80;99.90
2623;DHT22;1321;48.690;9.022;2023-06-01T14:50:11;24.90;99.90
2623;DHT22;1321;48.690;9.022;2023-06-01T14:52:39;24.90;99.90
2623;DHT22;1321;48.690;9.022;2023-06-01T14:55:07;25.00;99.90
2623;DHT22;1321;48.690;9.022;2023-06-01T14:57:39;25.00;99.90
2623;DHT22;1321;48.690;9.022;2023-06-01T15:00:08;25.00;99.90
2623;DHT22;1321;48.690;9.022;2023-06-01T15:02:37;25.00;99.90
2623;DHT22;1321;48.690;9.022;2023-06-01T15:05:06;25.00;99.90
2623;DHT22;1321;48.690;9.022;2023-06-01T15:07:36;25.00;99.90
2623;DHT22;1321;48.690;9.022;2023-06-01T15:10:07;25.00;99.90
2623;DHT22;1321;48.690;9.022;2023-06-01T15:12:38;25.00;99.90
2623;DHT22;1321;48.690;9.022;2023-06-01T15:15:06;25.00;99.90
2623;DHT22;1321;48.690;9.022;2023-06-01T15:17:34;25.00;99.90
2623;DHT22;1321;48.690;9.022;2023-06-01T15:20:03;25.00;99.90
2623;DHT22;1321;48.690;9.022;2023-06-01T15:22:33;25.00;99.90
2623;DHT22;1321;48.690;9.022;2023-06-01T15:25:06;25.10;99.90
2623;DHT22;1321;48.690;9.022;2023-06-01T15:27:35;25.00;99.90
2623;DHT22;1321;48.690;9.022;2023-06-01T15:30:05;25.00;99.90
2623;DHT22;1321;48.690;9.022;2023-06-01T15:32:33;25.00;99.90
2623;DHT22;1321;48.690;9.022;2023-06-01T15:35:01;25.00;99.90
2623;DHT22;1321;48.690;9.022;2023-06-01T15:37:32;25.00;99.90
2623;DHT22;1321;48.690;9.022;2023-06-01T15:40:00;25.10;99.90
2623;DHT22;1321;48.690;9.022;2023-06-01T15:42:30;25.10;99.90
2623;DHT22;1321;48.690;9.022;2023-06-01T15:44:58;25.10;99.90
2623;DHT22;1321;48.690;9.022;2023-06-01T15:47:27;25.10;99.90
2623;DHT22;1321;48.690;9.022;2023-06-01T15:49:55;25.00;99.90
2623;DHT22;1321;48.690;9.022;2023-06-01T15:52:24;25.10;99.90
2623;DHT22;1321;48.690;9.022;2023-06-01T15:54:52;25.10;99.90
2623;DHT22;1321;48.690;9.022;2023-06-01T15:57:21;25.00;99.90
2623;DHT22;1321;48.690;9.022;2023-06-01T15:59:51;25.00;99.90
2623;DHT22;1321;48.690;9.022;2023-06-01T16:02:20;25.10;99.90
2623;DHT22;1321;48.690;9.022;2023-06-01T16:04:48;25.10;99.90
2623;DHT22;1321;48.690;9.022;2023-06-01T16:07:16;25.10;99.90
2623;DHT22;1321;48.690;9.022;2023-06-01T16:09:44;25.10;99.90
2623;DHT22;1321;48.690;9.022;2023-06-01T16:12:14;25.10;99.90
2623;DHT22;1321;48.690;9.022;2023-06-01T16:14:43;25.00;99.90
2623;DHT22;1321;48.690;9.022;2023-06-01T16:17:14;25.00;99.90
2623;DHT22;1321;48.690;9.022;2023-06-01T16:19:42;25.00;99.90
2623;DHT22;1321;48.690;9.022;2023-06-01T16:22:10;24.90;99.90
2623;DHT22;1321;48.690;9.022;2023-06-01T16:24:39;25.00;99.90
2623;DHT22;1321;48.690;9.022;2023-06-01T16:27:07;25.00;99.90